createdAt,value
2023-03-26T00:01:27.489Z,16.75
2023-03-26T00:04:05.839Z,16.65
2023-03-26T00:07:03.660Z,16.70
2023-03-26T00:09:39.100Z,16.57
2023-03-26T00:12:19.969Z,16.68
2023-03-26T00:14:56.466Z,16.67
2023-03-26T00:17:44.166Z,16.67
2023-03-26T00:20:11.446Z,16.55
2023-03-26T00:22:45.881Z,16.56
2023-03-26T00:25:14.488Z,16.66
2023-03-26T00:27:44.584Z,16.70
2023-03-26T00:30:12.677Z,16.57
2023-03-26T00:33:06.269Z,16.78
2023-03-26T00:36:03.992Z,16.80
2023-03-26T00:38:31.874Z,16.66
2023-03-26T00:47:00.321Z,16.77
2023-03-26T00:49:50.976Z,16.74
2023-03-26T00:52:21.549Z,16.77
2023-03-26T00:54:52.720Z,16.83
2023-03-26T00:57:34.861Z,16.67
2023-03-26T01:00:16.567Z,16.59
2023-03-26T01:02:45.399Z,16.41
2023-03-26T01:06:05.877Z,16.43
2023-03-26T01:09:02.846Z,16.36
2023-03-26T01:17:30.718Z,16.23
2023-03-26T01:20:28.508Z,16.51
2023-03-26T01:23:05.547Z,16.49
2023-03-26T01:25:53.067Z,16.86
2023-03-26T01:28:23.312Z,16.74
2023-03-26T01:34:21.773Z,16.41
2023-03-26T01:37:24.321Z,16.48
2023-03-26T01:40:08.904Z,15.99
2023-03-26T01:42:48.686Z,16.22
2023-03-26T01:45:26.841Z,15.56
2023-03-26T01:47:56.378Z,16.13
2023-03-26T01:50:23.381Z,15.96
2023-03-26T01:53:07.906Z,15.82
2023-03-26T01:56:05.654Z,15.72
2023-03-26T01:58:51.993Z,15.77
2023-03-26T02:01:46.932Z,16.27
2023-03-26T02:04:53.728Z,15.94
2023-03-26T02:07:45.857Z,16.07
2023-03-26T02:10:24.476Z,15.92
2023-03-26T02:12:51.961Z,15.60
2023-03-26T02:15:18.984Z,15.42
2023-03-26T02:17:49.860Z,15.33
2023-03-26T02:20:36.481Z,15.59
2023-03-26T02:23:18.066Z,15.03
2023-03-26T02:25:46.307Z,15.22
2023-03-26T02:31:11.273Z,13.99
2023-03-26T02:33:47.958Z,15.32
2023-03-26T02:36:30.244Z,15.17
2023-03-26T02:39:04.734Z,15.25
2023-03-26T02:41:34.053Z,15.31
2023-03-26T02:44:03.408Z,14.51
2023-03-26T02:46:41.755Z,14.59
2023-03-26T02:49:11.645Z,15.20
2023-03-26T02:51:42.522Z,14.83
2023-03-26T02:54:10.634Z,14.71
2023-03-26T02:56:59.713Z,14.83
2023-03-26T02:59:26.942Z,14.17
2023-03-26T03:01:54.931Z,14.28
2023-03-26T03:04:25.250Z,15.49
2023-03-26T03:06:57.969Z,15.65
2023-03-26T03:09:25.551Z,14.53
2023-03-26T03:11:55.939Z,15.64
2023-03-26T03:14:31.880Z,15.94
2023-03-26T03:17:25.308Z,16.01
2023-03-26T03:20:07.465Z,16.20
2023-03-26T03:22:38.929Z,14.95
2023-03-26T03:25:28.655Z,14.94
2023-03-26T03:28:18.349Z,16.31
2023-03-26T03:37:22.181Z,13.79
2023-03-26T03:40:03.601Z,14.58
2023-03-26T03:42:41.120Z,14.63
2023-03-26T03:45:27.185Z,14.50
2023-03-26T03:48:02.363Z,15.01
2023-03-26T03:50:38.994Z,14.15
2023-03-26T03:53:21.682Z,14.22
2023-03-26T03:55:59.980Z,13.58
2023-03-26T03:58:44.467Z,14.00
2023-03-26T04:01:16.762Z,15.24
2023-03-26T04:03:47.309Z,14.58
2023-03-26T04:06:20.096Z,14.88
2023-03-26T04:08:56.642Z,15.29
2023-03-26T04:11:50.010Z,15.63
2023-03-26T04:14:28.640Z,14.42
2023-03-26T04:19:47.075Z,14.92
2023-03-26T04:22:20.941Z,15.74
2023-03-26T04:25:01.752Z,14.96
2023-03-26T04:27:37.010Z,14.32
2023-03-26T04:30:06.848Z,15.15
2023-03-26T04:32:42.101Z,15.41
2023-03-26T04:35:17.013Z,15.79
2023-03-26T04:37:47.957Z,15.22
2023-03-26T04:40:43.552Z,15.96
2023-03-26T04:43:28.327Z,15.45
2023-03-26T04:46:07.139Z,15.39
2023-03-26T04:48:38.158Z,14.27
2023-03-26T04:51:29.220Z,15.41
2023-03-26T04:54:04.581Z,15.58
2023-03-26T04:56:56.337Z,15.55
2023-03-26T04:59:35.294Z,15.90
2023-03-26T05:02:06.971Z,16.15
2023-03-26T05:04:56.542Z,16.54
2023-03-26T05:07:35.934Z,16.18
2023-03-26T05:10:06.499Z,15.30
2023-03-26T05:12:39.176Z,14.83
2023-03-26T05:15:20.984Z,15.72
2023-03-26T05:18:02.668Z,15.91
2023-03-26T05:20:39.125Z,15.34
2023-03-26T05:23:21.198Z,15.70
2023-03-26T05:28:35.222Z,15.51
2023-03-26T05:31:07.872Z,15.61
2023-03-26T05:36:24.320Z,15.08
2023-03-26T05:38:52.646Z,15.06
2023-03-26T05:41:19.794Z,15.45
2023-03-26T05:43:47.986Z,15.87
2023-03-26T05:46:15.783Z,15.14
2023-03-26T05:49:02.765Z,14.65
2023-03-26T05:51:39.771Z,14.04
2023-03-26T05:54:12.347Z,14.26
2023-03-26T05:56:43.151Z,14.62
2023-03-26T05:59:37.848Z,14.82
2023-03-26T06:02:09.583Z,14.06
2023-03-26T06:04:42.991Z,14.22
2023-03-26T06:07:27.458Z,14.40
2023-03-26T06:09:58.846Z,15.15
2023-03-26T06:12:29.074Z,15.67
2023-03-26T06:14:56.057Z,15.60
2023-03-26T06:17:24.359Z,15.62
2023-03-26T06:20:03.200Z,15.45
2023-03-26T06:22:32.014Z,15.55
2023-03-26T06:25:06.767Z,15.33
2023-03-26T06:27:41.063Z,15.71
2023-03-26T06:30:16.675Z,15.63
2023-03-26T06:32:50.124Z,15.40
2023-03-26T06:35:17.340Z,15.83
2023-03-26T06:37:44.344Z,15.62
2023-03-26T06:40:11.990Z,15.93
2023-03-26T06:43:09.090Z,15.73
2023-03-26T06:45:45.882Z,15.89
2023-03-26T06:48:12.823Z,16.37
2023-03-26T06:50:39.740Z,15.87
2023-03-26T06:53:06.744Z,16.06
2023-03-26T06:55:33.694Z,16.11
2023-03-26T06:58:14.845Z,16.15
2023-03-26T07:01:02.777Z,16.25
2023-03-26T07:03:39.588Z,16.19
2023-03-26T07:06:13.261Z,16.30
2023-03-26T07:08:43.473Z,16.32
2023-03-26T07:11:18.526Z,16.30
2023-03-26T07:14:01.785Z,16.47
2023-03-26T07:16:35.284Z,16.54
2023-03-26T07:19:06.309Z,16.52
2023-03-26T07:21:40.171Z,16.51
2023-03-26T07:24:20.225Z,16.54
2023-03-26T07:27:24.548Z,16.53
2023-03-26T07:30:23.590Z,16.66
2023-03-26T07:33:30.942Z,16.62
2023-03-26T07:36:31.295Z,16.70
2023-03-26T07:39:22.082Z,16.75
2023-03-26T07:41:55.301Z,16.48
2023-03-26T07:45:03.001Z,16.56
2023-03-26T07:47:38.164Z,16.45
2023-03-26T07:50:06.072Z,16.78
2023-03-26T07:52:34.285Z,16.93
2023-03-26T07:55:01.606Z,16.78
2023-03-26T07:57:45.684Z,16.72
2023-03-26T08:00:28.325Z,16.88
2023-03-26T08:03:15.722Z,16.99
2023-03-26T08:09:20.941Z,16.63
2023-03-26T08:11:57.292Z,16.44
2023-03-26T08:14:53.021Z,16.79
2023-03-26T08:17:37.172Z,16.54
2023-03-26T08:20:31.306Z,16.41
2023-03-26T08:23:03.928Z,16.50
2023-03-26T08:25:40.624Z,16.68
2023-03-26T08:29:16.788Z,16.61
2023-03-26T08:31:46.859Z,16.58
2023-03-26T08:34:14.378Z,16.55
2023-03-26T08:36:47.369Z,16.54
2023-03-26T08:39:23.902Z,16.67
2023-03-26T08:42:53.203Z,16.80
2023-03-26T08:45:49.167Z,16.82
2023-03-26T08:49:05.342Z,16.66
2023-03-26T08:51:55.176Z,16.57
2023-03-26T08:54:57.329Z,16.72
2023-03-26T08:57:40.389Z,16.64
2023-03-26T09:03:25.669Z,16.84
2023-03-26T09:06:26.149Z,16.69
2023-03-26T09:09:31.310Z,16.80
2023-03-26T09:12:41.773Z,16.94
2023-03-26T09:15:41.903Z,17.17
2023-03-26T09:18:40.843Z,17.43
2023-03-26T09:21:39.343Z,17.75
2023-03-26T09:24:19.784Z,17.83
2023-03-26T09:27:08.871Z,17.82
2023-03-26T09:30:00.854Z,17.83
2023-03-26T09:32:47.861Z,18.12
2023-03-26T09:35:29.374Z,18.14
2023-03-26T09:38:19.663Z,18.15
2023-03-26T09:41:08.196Z,18.20
2023-03-26T09:44:15.874Z,17.90
2023-03-26T09:47:00.991Z,17.93
2023-03-26T09:50:15.538Z,17.99
2023-03-26T09:53:13.595Z,18.21
2023-03-26T09:56:14.350Z,18.41
2023-03-26T09:59:12.204Z,18.68
2023-03-26T10:02:13.216Z,18.56
2023-03-26T10:05:32.076Z,18.56
2023-03-26T10:08:20.544Z,18.51
2023-03-26T10:11:09.653Z,18.73
2023-03-26T10:14:01.611Z,19.22
2023-03-26T10:17:12.623Z,19.37
2023-03-26T10:20:14.497Z,19.89
2023-03-26T10:22:56.621Z,20.09
2023-03-26T10:25:45.569Z,20.17
2023-03-26T10:28:38.732Z,20.27
2023-03-26T10:31:14.839Z,20.15
2023-03-26T10:34:02.985Z,19.66
2023-03-26T10:36:58.451Z,19.38
2023-03-26T10:40:03.686Z,19.35
2023-03-26T10:43:24.193Z,19.93
2023-03-26T10:46:26.320Z,19.78
2023-03-26T10:49:09.481Z,19.94
2023-03-26T10:52:06.859Z,20.00
2023-03-26T10:54:52.895Z,20.26
2023-03-26T10:57:26.740Z,20.63
2023-03-26T10:59:58.086Z,20.77
2023-03-26T11:03:05.244Z,20.65
2023-03-26T11:06:08.007Z,20.15
2023-03-26T11:09:21.035Z,20.34
2023-03-26T11:12:32.587Z,20.05
2023-03-26T11:15:18.496Z,19.95
2023-03-26T11:18:16.595Z,20.44
2023-03-26T11:21:18.479Z,20.24
2023-03-26T11:27:21.335Z,20.62
2023-03-26T11:30:44.170Z,20.44
2023-03-26T11:33:22.547Z,20.65
2023-03-26T11:36:14.918Z,20.88
2023-03-26T11:38:47.733Z,20.85
2023-03-26T11:41:52.323Z,20.84
2023-03-26T11:44:36.673Z,20.62
2023-03-26T11:47:16.341Z,20.32
2023-03-26T11:49:56.204Z,19.99
2023-03-26T11:52:25.659Z,19.90
2023-03-26T11:55:04.735Z,20.18
2023-03-26T11:57:35.685Z,20.37
2023-03-26T12:00:17.379Z,20.66
2023-03-26T12:02:53.132Z,20.67
2023-03-26T12:05:36.634Z,20.83
2023-03-26T12:08:19.908Z,21.15
2023-03-26T12:11:00.600Z,21.67
2023-03-26T12:13:37.747Z,21.76
2023-03-26T12:16:57.076Z,21.20
2023-03-26T12:19:30.203Z,21.27
2023-03-26T12:21:57.622Z,21.45
2023-03-26T12:24:38.098Z,21.59
2023-03-26T12:27:31.140Z,21.20
2023-03-26T12:30:27.698Z,21.18
2023-03-26T12:33:18.713Z,21.15
2023-03-26T12:35:46.165Z,21.11
2023-03-26T12:38:39.548Z,20.99
2023-03-26T12:44:42.920Z,20.64
2023-03-26T12:44:58.848Z,20.20
2023-03-26T12:47:58.656Z,20.17
2023-03-26T12:50:57.716Z,20.17
2023-03-26T12:53:40.230Z,20.28
2023-03-26T12:56:46.928Z,20.48
2023-03-26T12:59:56.235Z,20.29
2023-03-26T13:03:01.617Z,20.32
2023-03-26T13:05:53.757Z,19.92
2023-03-26T13:09:07.007Z,19.76
2023-03-26T13:12:14.559Z,19.92
2023-03-26T13:19:11.245Z,20.14
2023-03-26T13:22:15.823Z,20.41
2023-03-26T13:25:23.449Z,20.26
2023-03-26T13:28:35.410Z,20.39
2023-03-26T13:31:22.306Z,20.06
2023-03-26T13:34:13.855Z,19.69
2023-03-26T13:40:26.196Z,20.03
2023-03-26T13:43:26.431Z,20.15
2023-03-26T13:46:13.996Z,20.01
2023-03-26T13:49:13.713Z,19.91
2023-03-26T13:52:01.894Z,19.93
2023-03-26T13:57:46.576Z,19.90
2023-03-26T14:00:38.003Z,19.91
2023-03-26T14:03:36.602Z,19.87
2023-03-26T14:06:32.329Z,19.59
2023-03-26T14:09:47.884Z,19.67
2023-03-26T14:12:27.075Z,19.61
2023-03-26T14:15:26.389Z,19.63
2023-03-26T14:18:42.886Z,19.71
2023-03-26T14:21:38.591Z,19.69
2023-03-26T14:24:52.993Z,19.72
2023-03-26T14:27:53.649Z,19.96
2023-03-26T14:30:55.228Z,19.96
2023-03-26T14:33:51.081Z,20.05
2023-03-26T14:36:43.106Z,19.88
2023-03-26T14:39:52.653Z,19.73
2023-03-26T14:42:43.170Z,19.77
2023-03-26T14:46:09.932Z,19.67
2023-03-26T14:48:37.437Z,19.79
2023-03-26T14:51:35.439Z,19.66
2023-03-26T14:54:12.357Z,19.57
2023-03-26T14:56:45.692Z,19.49
2023-03-26T14:59:27.911Z,19.57
2023-03-26T15:02:17.837Z,19.63
2023-03-26T15:05:34.242Z,19.63
2023-03-26T15:08:54.687Z,19.51
2023-03-26T15:12:12.596Z,19.71
2023-03-26T15:15:16.477Z,19.49
2023-03-26T15:18:27.890Z,19.39
2023-03-26T15:21:52.617Z,19.33
2023-03-26T15:24:48.220Z,19.19
2023-03-26T15:27:51.638Z,19.09
2023-03-26T15:30:54.767Z,19.05
2023-03-26T15:34:06.761Z,18.99
2023-03-26T15:37:01.920Z,19.10
2023-03-26T15:40:09.502Z,19.06
2023-03-26T15:42:54.395Z,19.00
2023-03-26T15:45:48.149Z,18.98
2023-03-26T15:48:58.691Z,18.98
2023-03-26T15:51:49.372Z,18.99
2023-03-26T15:54:59.750Z,18.98
2023-03-26T15:58:28.320Z,19.08
2023-03-26T16:01:30.340Z,18.94
2023-03-26T16:04:39.366Z,19.24
2023-03-26T16:07:58.012Z,19.10
2023-03-26T16:11:06.776Z,19.10
2023-03-26T16:14:13.932Z,19.07
2023-03-26T16:17:10.593Z,18.88
2023-03-26T16:19:50.560Z,18.76
2023-03-26T16:22:44.509Z,18.92
2023-03-26T16:25:29.351Z,18.88
2023-03-26T16:28:26.360Z,18.72
2023-03-26T16:31:37.819Z,18.78
2023-03-26T16:34:22.368Z,18.88
2023-03-26T16:37:01.281Z,18.78
2023-03-26T16:49:25.776Z,18.62
2023-03-26T16:52:26.472Z,18.68
2023-03-26T16:55:30.203Z,18.75
2023-03-26T16:58:43.435Z,18.57
2023-03-26T17:04:03.348Z,18.55
2023-03-26T17:06:39.948Z,18.59
2023-03-26T17:09:44.369Z,18.79
2023-03-26T17:12:51.163Z,18.61
2023-03-26T17:16:01.227Z,18.58
2023-03-26T17:18:39.575Z,18.71
2023-03-26T17:21:47.307Z,18.20
2023-03-26T17:24:57.137Z,17.67
2023-03-26T17:28:08.104Z,17.42
2023-03-26T17:30:58.789Z,16.68
2023-03-26T17:33:54.235Z,16.35
2023-03-26T17:36:44.522Z,16.35
2023-03-26T17:39:46.853Z,16.07
2023-03-26T17:42:39.409Z,15.76
2023-03-26T17:45:27.120Z,15.40
2023-03-26T17:48:07.566Z,15.52
2023-03-26T17:51:03.639Z,15.54
2023-03-26T17:53:44.020Z,15.49
2023-03-26T17:56:30.983Z,15.40
2023-03-26T17:59:17.489Z,15.11
2023-03-26T18:01:48.774Z,14.74
2023-03-26T18:04:29.878Z,14.97
2023-03-26T18:07:40.481Z,14.85
2023-03-26T18:10:43.090Z,14.13
2023-03-26T18:13:32.377Z,13.64
2023-03-26T18:16:57.875Z,13.31
2023-03-26T18:19:33.484Z,13.30
2023-03-26T18:22:06.314Z,13.33
2023-03-26T18:24:52.548Z,13.06
2023-03-26T18:27:41.305Z,12.76
2023-03-26T18:30:18.277Z,13.05
2023-03-26T18:33:10.362Z,13.01
2023-03-26T18:35:55.839Z,12.95
2023-03-26T18:38:35.912Z,13.14
2023-03-26T18:41:24.180Z,13.17
2023-03-26T18:43:58.507Z,13.42
2023-03-26T18:46:27.566Z,13.57
2023-03-26T18:48:59.048Z,13.52
2023-03-26T18:51:27.315Z,13.57
2023-03-26T18:54:14.822Z,13.36
2023-03-26T18:56:49.341Z,13.18
2023-03-26T18:59:34.167Z,13.48
2023-03-26T19:02:14.064Z,13.48
2023-03-26T19:04:52.671Z,13.76
2023-03-26T19:07:31.196Z,13.95
2023-03-26T19:10:06.760Z,14.39
2023-03-26T19:12:43.943Z,14.61
2023-03-26T19:15:28.295Z,14.61
2023-03-26T19:18:20.611Z,14.52
2023-03-26T19:21:30.575Z,14.50
2023-03-26T19:23:59.492Z,14.52
2023-03-26T19:26:44.945Z,14.53
2023-03-26T19:30:00.885Z,14.93
2023-03-26T19:32:33.042Z,14.91
2023-03-26T19:35:04.444Z,14.71
2023-03-26T19:37:51.146Z,14.70
2023-03-26T19:40:26.968Z,14.58
2023-03-26T19:43:09.327Z,14.60
2023-03-26T19:45:38.007Z,14.64
2023-03-26T19:52:30.606Z,14.68
2023-03-26T19:55:22.327Z,14.67
2023-03-26T19:57:51.885Z,14.90
2023-03-26T20:00:28.076Z,14.94
2023-03-26T20:03:04.041Z,14.68
2023-03-26T20:05:36.772Z,14.82
2023-03-26T20:08:16.537Z,14.56
2023-03-26T20:10:48.422Z,14.56
2023-03-26T20:16:31.003Z,14.92
2023-03-26T20:19:17.970Z,14.82
2023-03-26T20:21:48.286Z,14.57
2023-03-26T20:24:17.887Z,14.50
2023-03-26T20:26:51.496Z,14.30
2023-03-26T20:29:20.100Z,14.35
2023-03-26T20:31:48.744Z,14.18
2023-03-26T20:37:10.492Z,14.05
2023-03-26T20:39:58.739Z,13.77
2023-03-26T20:42:37.869Z,13.35
2023-03-26T20:45:35.035Z,13.21
2023-03-26T20:48:03.171Z,13.54
2023-03-26T20:50:31.717Z,13.40
2023-03-26T20:53:17.642Z,13.43
2023-03-26T20:55:58.072Z,13.40
2023-03-26T20:58:32.355Z,13.48
2023-03-26T21:01:06.103Z,13.51
2023-03-26T21:03:36.545Z,13.86
2023-03-26T21:06:06.534Z,13.83
2023-03-26T21:08:43.726Z,14.14
2023-03-26T21:11:27.281Z,14.69
2023-03-26T21:14:26.023Z,14.05
2023-03-26T21:16:55.796Z,13.90
2023-03-26T21:19:23.314Z,14.03
2023-03-26T21:22:03.960Z,13.92
2023-03-26T21:24:58.526Z,13.32
2023-03-26T21:28:01.547Z,13.01
2023-03-26T21:34:01.499Z,12.71
2023-03-26T21:36:49.437Z,12.81
2023-03-26T21:39:30.534Z,12.70
2023-03-26T21:42:10.447Z,12.66
2023-03-26T21:44:45.652Z,12.65
2023-03-26T21:47:34.620Z,12.54
2023-03-26T21:50:23.691Z,12.59
2023-03-26T21:52:57.401Z,12.48
2023-03-26T21:55:31.013Z,12.40
2023-03-26T21:58:30.151Z,12.36
2023-03-26T22:01:43.123Z,12.30
2023-03-26T22:04:24.163Z,12.35
2023-03-26T22:07:48.666Z,12.56
2023-03-26T22:10:22.106Z,12.50
2023-03-26T22:13:09.604Z,12.79
2023-03-26T22:16:00.134Z,12.89
2023-03-26T22:18:49.596Z,12.77
2023-03-26T22:21:17.830Z,12.62
2023-03-26T22:24:00.752Z,12.77
2023-03-26T22:26:29.568Z,12.89
2023-03-26T22:29:07.670Z,12.74
2023-03-26T22:31:35.077Z,12.71
2023-03-26T22:34:55.567Z,12.68
2023-03-26T22:37:29.094Z,12.96
2023-03-26T22:39:57.840Z,12.94
2023-03-26T22:42:32.832Z,13.10
2023-03-26T22:45:15.803Z,13.08
2023-03-26T22:48:03.569Z,13.34
2023-03-26T22:50:36.987Z,13.58
2023-03-26T22:53:16.994Z,13.71
2023-03-26T22:56:33.572Z,13.62
2023-03-26T22:59:01.682Z,13.44
2023-03-26T23:01:40.818Z,13.35
2023-03-26T23:04:30.657Z,13.62
2023-03-26T23:07:00.653Z,13.22
2023-03-26T23:09:45.421Z,13.07
2023-03-26T23:12:17.058Z,13.03
2023-03-26T23:14:46.255Z,12.82
2023-03-26T23:17:18.069Z,13.27
2023-03-26T23:19:51.868Z,13.28
2023-03-26T23:22:21.830Z,13.34
2023-03-26T23:24:52.446Z,13.38
2023-03-26T23:27:30.064Z,13.21
2023-03-26T23:30:15.373Z,13.06
2023-03-26T23:32:59.507Z,13.35
2023-03-26T23:35:39.788Z,13.60
2023-03-26T23:38:19.531Z,13.43
2023-03-26T23:40:57.264Z,13.49
2023-03-26T23:43:26.591Z,13.52
2023-03-26T23:45:56.435Z,13.50
2023-03-26T23:48:29.892Z,13.02
2023-03-26T23:51:04.521Z,12.74
2023-03-26T23:53:34.582Z,12.73
2023-03-26T23:56:07.830Z,12.62
2023-03-26T23:58:34.851Z,12.54
